Impacts METAR Board INFO
IDs:

KGWO - Greenwood/Leflore Ar, MS, US

Updated at: 1151 UTC 24 Feb 2018
Potential Impact None Slight Moderate High
Time23/23Z 24/00Z 24/01Z 24/02Z 24/03Z 24/04Z 24/05Z 24/06Z 24/07Z 24/08Z 24/09Z 24/10Z 24/11Z
VIS10 8 3 7 10 10 10 10 10 10 10 10 10
CIG95 70 46 36 26 65 9 95 -- 10 20 -- 28
CoverOVCOVCOVCOVCOVCOVCOVCBKNSCTBKNBKNCLROVC
FltCatVFRVFRMVFRVFRMVFRVFRIFRVFRVFRMVFRMVFRVFRMVFR
WX---RARA BR-RA------------------
WDir180160160140090150170190190180180190
WSpd8 5 8 3 0 4 5 7 8 9 8 7 11
WGst-- -- -- -- -- -- -- -- -- -- -- -- --
Raw hourly METARs
KGWO 232253Z AUTO 18008KT 10SM SCT080 OVC095 21/19 A3018 RMK AO2 RAE41 SLP216 P0005 T02060194
KGWO 232353Z AUTO 16005KT 8SM -RA FEW055 BKN070 OVC080 20/19 A3017 RMK AO2 RAB47 SLP216 P0000 60012 T02000189 10272 20200 50005
KGWO 240053Z AUTO 16008KT 3SM RA BR BKN046 BKN065 OVC075 19/18 A3017 RMK AO2 SLP215 P0003 T01940183
KGWO 240153Z AUTO 14003KT 7SM -RA FEW022 SCT029 OVC036 19/18 A3017 RMK AO2 SLP213 P0008 T01890183
KGWO 240253Z AUTO 00000KT 10SM BKN026 OVC035 19/18 A3015 RMK AO2 RAE15 SLP208 P0000 60011 T01890183 58007
KGWO 240353Z AUTO 09004KT 10SM FEW005 SCT017 OVC065 18/18 A3013 RMK AO2 SLP202 T01830183
KGWO 240453Z AUTO 15005KT 10SM BKN009 BKN045 OVC085 19/18 A3011 RMK AO2 CIG 007V012 SLP195 T01890183
KGWO 240553Z AUTO 17007KT 10SM SCT009 BKN095 19/18 A3009 RMK AO2 SLP186 60011 T01890183 10200 20183 402720167 58022
KGWO 240653Z AUTO 19008KT 10SM SCT009 19/19 A3008 RMK AO2 SLP183 T01940189
KGWO 240753Z AUTO 19009KT 10SM BKN010 19/19 A3007 RMK AO2 SLP180 T01940189
KGWO 240853Z AUTO 18008KT 10SM FEW010 BKN020 BKN024 20/19 A3005 RMK AO2 SLP174 T02000189 56008
KGWO 240953Z AUTO 18007KT 10SM CLR 19/18 A3004 RMK AO2 SLP169 T01890183
KGWO 241053Z AUTO 19011KT 10SM FEW013 SCT021 OVC028 20/19 A3005 RMK AO2 SLP174 T02000189